Lancaster, Canada
Current Conditions -  °F | °C
As of 3:53 PM on Sunday 21 Dec 2014 (Local Time) from KMSS Reporting Station
Overcast Overcast  
Wind Chill: 12°   Ceiling: 2500
Heat Index: 21°   Visibility: 7mi
Dew Point: 15°   Wind: 7mph
Humidity: 78%   Direction: 70°ENE
Pressure: 30.36"   Gusts: NA
Location:  45.13°N, 74.5°W
Report Text: KMSS 212053Z AUTO 07006KT 7SM FEW008 OVC025 M06/M09 A3036 RMK AO2 SLP289 T10611094 55000
Loading
Personal Weather Stations






























Interactive Weather Map New forecast layout! Learn more

10-Day Weather Forecast

Advertisements
Track Severe Weather on mobile